createdAt,value
2022-12-23T00:02:59.376Z,99045.66
2022-12-23T00:08:30.844Z,99049.89
2022-12-23T00:11:02.501Z,99046.40
2022-12-23T00:13:51.334Z,99049.04
2022-12-23T00:16:22.971Z,99050.81
2022-12-23T00:18:56.332Z,99050.04
2022-12-23T00:21:28.006Z,99053.21
2022-12-23T00:23:59.446Z,99054.99
2022-12-23T00:26:32.881Z,99054.31
2022-12-23T00:29:04.405Z,99053.16
2022-12-23T00:31:36.125Z,99052.69
2022-12-23T00:34:07.628Z,99057.91
2022-12-23T00:36:39.312Z,99063.88
2022-12-23T00:39:32.276Z,99068.34
2022-12-23T00:42:52.421Z,99072.34
2022-12-23T00:47:13.691Z,99072.73
2022-12-23T00:48:42.901Z,99069.17
2022-12-23T00:51:14.403Z,99070.27
2022-12-23T00:53:46.016Z,99070.10
2022-12-23T00:56:17.694Z,99066.86
2022-12-23T00:58:49.337Z,99074.15
2022-12-23T01:01:38.179Z,99072.05
2022-12-23T01:04:28.702Z,99073.45
2022-12-23T01:07:54.554Z,99078.10
2022-12-23T01:11:19.021Z,99079.88
2022-12-23T01:17:41.099Z,99082.71
2022-12-23T01:18:07.204Z,99083.20
2022-12-23T01:21:31.113Z,99084.33
2022-12-23T01:24:56.544Z,99077.77
2022-12-23T01:28:22.688Z,99091.58
2022-12-23T01:31:16.908Z,99082.80
2022-12-23T01:34:35.995Z,99080.02
2022-12-23T01:37:08.817Z,99081.83
2022-12-23T01:39:40.571Z,99081.32
2022-12-23T01:42:33.962Z,99086.11
2022-12-23T01:45:15.246Z,99081.73
2022-12-23T01:47:51.141Z,99086.05
2022-12-23T01:50:27.494Z,99092.94
2022-12-23T01:53:08.088Z,99098.55
2022-12-23T01:55:47.057Z,99093.39
2022-12-23T02:00:32.364Z,99093.11
2022-12-23T02:02:22.435Z,99102.79
2022-12-23T02:05:08.753Z,99100.80
2022-12-23T02:08:05.201Z,99094.75
2022-12-23T02:11:05.242Z,99099.44
2022-12-23T02:14:22.296Z,99112.08
2022-12-23T02:17:04.286Z,99108.15
2022-12-23T02:19:58.792Z,99121.29
2022-12-23T02:22:47.971Z,99115.52
2022-12-23T02:26:03.134Z,99113.05
2022-12-23T02:29:07.182Z,99113.98
2022-12-23T02:31:46.159Z,99112.62
2022-12-23T02:34:22.682Z,99122.52
2022-12-23T02:37:06.897Z,99128.39
2022-12-23T02:39:44.604Z,99131.80
2022-12-23T02:42:19.826Z,99128.70
2022-12-23T02:45:00.595Z,99129.75
2022-12-23T02:47:39.309Z,99126.48
2022-12-23T02:50:17.025Z,99136.41
2022-12-23T02:52:51.735Z,99134.66
2022-12-23T02:55:28.918Z,99135.45
2022-12-23T02:58:02.978Z,99126.93
2022-12-23T03:00:34.743Z,99120.96
2022-12-23T03:03:07.085Z,99123.30
2022-12-23T03:05:43.996Z,99119.37
2022-12-23T03:08:20.412Z,99115.52
2022-12-23T03:13:01.895Z,99123.33
2022-12-23T03:14:45.623Z,99127.61
2022-12-23T03:17:35.086Z,99124.80
2022-12-23T03:20:13.940Z,99124.67
2022-12-23T03:22:53.588Z,99126.58
2022-12-23T03:25:32.224Z,99130.91
2022-12-23T03:28:10.719Z,99126.23
2022-12-23T03:30:44.783Z,99123.17
2022-12-23T03:33:33.209Z,99120.92
2022-12-23T03:37:33.822Z,99125.30
2022-12-23T03:39:50.528Z,99130.60
2022-12-23T03:46:20.329Z,99137.58
2022-12-23T03:46:30.387Z,99144.59
2022-12-23T03:49:07.801Z,99151.70
2022-12-23T03:51:47.562Z,99143.78
2022-12-23T03:54:28.077Z,99155.03
2022-12-23T03:57:04.058Z,99160.42
2022-12-23T03:59:38.850Z,99153.61
2022-12-23T04:02:12.778Z,99150.23
2022-12-23T04:05:00.903Z,99150.99
2022-12-23T04:07:36.629Z,99145.20
2022-12-23T04:10:10.578Z,99141.89
2022-12-23T04:12:43.173Z,99139.13
2022-12-23T04:15:15.377Z,99137.45
2022-12-23T04:17:47.788Z,99132.93
2022-12-23T04:20:19.923Z,99139.94
2022-12-23T04:22:51.505Z,99136.84
2022-12-23T04:25:23.125Z,99136.48
2022-12-23T04:27:54.554Z,99137.14
2022-12-23T04:38:12.983Z,99137.98
2022-12-23T04:40:46.997Z,99145.76
2022-12-23T04:43:18.673Z,99145.73
2022-12-23T04:45:53.595Z,99148.39
2022-12-23T04:48:25.370Z,99143.50
2022-12-23T04:50:57.075Z,99151.11
2022-12-23T04:53:28.811Z,99152.37
2022-12-23T04:56:00.418Z,99151.55
2022-12-23T04:58:31.960Z,99150.76
2022-12-23T05:01:09.043Z,99155.95
2022-12-23T05:03:41.806Z,99159.88
2022-12-23T05:06:13.413Z,99155.33
2022-12-23T05:09:00.084Z,99160.05
2022-12-23T05:11:48.032Z,99160.34
2022-12-23T05:14:25.283Z,99166.16
2022-12-23T05:17:23.678Z,99158.30
2022-12-23T05:20:22.185Z,99159.11
2022-12-23T05:23:05.686Z,99170.34
2022-12-23T05:25:49.746Z,99163.80
2022-12-23T05:28:28.942Z,99167.34
2022-12-23T05:32:24.697Z,99171.04
2022-12-23T05:34:18.247Z,99170.13
2022-12-23T05:36:57.400Z,99171.83
2022-12-23T05:39:56.223Z,99167.67
2022-12-23T05:44:57.945Z,99170.91
2022-12-23T05:45:44.398Z,99169.34
2022-12-23T05:49:19.730Z,99175.98
2022-12-23T05:52:23.993Z,99176.39
2022-12-23T05:55:26.765Z,99182.17
2022-12-23T05:58:37.891Z,99185.83
2022-12-23T06:01:02.581Z,99191.90
2022-12-23T06:03:34.466Z,99192.19
2022-12-23T06:06:09.580Z,99190.98
2022-12-23T06:08:41.428Z,99190.05
2022-12-23T06:11:15.833Z,99188.09
2022-12-23T06:13:47.692Z,99186.53
2022-12-23T06:16:19.581Z,99186.92
2022-12-23T06:19:08.398Z,99188.35
2022-12-23T06:21:45.219Z,99175.02
2022-12-23T06:24:29.244Z,99189.95
2022-12-23T06:27:21.889Z,99192.22
2022-12-23T06:30:15.935Z,99194.08
2022-12-23T06:33:00.534Z,99197.73
2022-12-23T06:35:42.766Z,99191.77
2022-12-23T06:38:19.240Z,99200.77
2022-12-23T06:40:51.818Z,99198.61
2022-12-23T06:43:23.696Z,99200.73
2022-12-23T06:45:55.824Z,99203.73
2022-12-23T06:48:29.224Z,99194.73
2022-12-23T06:51:00.967Z,99205.50
2022-12-23T06:53:32.846Z,99207.86
2022-12-23T06:56:06.205Z,99209.98
2022-12-23T06:58:38.023Z,99214.95
2022-12-23T07:01:10.337Z,99215.21
2022-12-23T07:07:22.943Z,99215.41
2022-12-23T07:09:54.775Z,99202.20
2022-12-23T07:12:26.433Z,99206.27
2022-12-23T07:14:58.221Z,99208.43
2022-12-23T07:17:35.164Z,99203.73
2022-12-23T07:20:07.960Z,99208.06
2022-12-23T07:22:40.856Z,99201.53
2022-12-23T07:25:13.893Z,99204.54
2022-12-23T07:27:45.865Z,99209.52
2022-12-23T07:30:18.730Z,99207.04
2022-12-23T07:32:52.746Z,99208.34
2022-12-23T07:35:24.492Z,99209.20
2022-12-23T07:38:06.284Z,99212.24
2022-12-23T07:40:45.111Z,99211.48
2022-12-23T07:43:17.100Z,99210.42
2022-12-23T07:45:51.329Z,99211.59
2022-12-23T07:48:27.753Z,99208.92
2022-12-23T07:51:10.303Z,99204.89
2022-12-23T07:53:41.813Z,99192.23
2022-12-23T07:56:13.602Z,99202.58
2022-12-23T07:58:45.352Z,99201.52
2022-12-23T08:01:17.226Z,99195.85
2022-12-23T08:03:50.247Z,99199.11
2022-12-23T08:06:21.906Z,99191.20
2022-12-23T08:08:54.778Z,99189.45
2022-12-23T08:11:26.239Z,99190.50
2022-12-23T08:13:57.833Z,99189.14
2022-12-23T08:16:29.320Z,99188.39
2022-12-23T08:19:01.076Z,99181.03
2022-12-23T08:21:33.465Z,99176.11
2022-12-23T08:24:05.361Z,99174.64
2022-12-23T08:26:37.298Z,99171.79
2022-12-23T08:29:08.729Z,99162.63
2022-12-23T08:31:40.451Z,99166.32
2022-12-23T08:34:14.725Z,99164.52
2022-12-23T08:36:50.280Z,99163.73
2022-12-23T08:39:26.153Z,99149.52
2022-12-23T08:41:58.723Z,99156.23
2022-12-23T08:44:31.476Z,99153.97
2022-12-23T08:47:15.241Z,99159.19
2022-12-23T08:50:09.352Z,99154.34
2022-12-23T08:53:06.599Z,99155.11
2022-12-23T08:55:58.101Z,99149.58
2022-12-23T08:58:31.877Z,99147.12
2022-12-23T09:01:08.997Z,99150.06
2022-12-23T09:03:41.909Z,99143.81
2022-12-23T09:06:16.384Z,99139.31
2022-12-23T09:08:48.551Z,99128.37
2022-12-23T09:11:23.714Z,99130.92
2022-12-23T09:13:58.804Z,99128.47
2022-12-23T09:16:31.670Z,99123.66
2022-12-23T09:19:03.706Z,99121.58
2022-12-23T09:21:35.604Z,99118.29
2022-12-23T09:24:08.948Z,99114.15
2022-12-23T09:26:44.776Z,99104.61
2022-12-23T09:29:21.971Z,99108.73
2022-12-23T09:31:56.978Z,99108.05
2022-12-23T09:34:30.702Z,99101.33
2022-12-23T09:37:07.569Z,99100.61
2022-12-23T09:39:40.369Z,99094.91
2022-12-23T09:42:30.798Z,99096.63
2022-12-23T09:45:18.705Z,99097.86
2022-12-23T09:47:51.162Z,99091.70
2022-12-23T09:50:29.152Z,99092.48
2022-12-23T09:53:05.741Z,99085.98
2022-12-23T09:55:50.262Z,99080.92
2022-12-23T09:58:31.066Z,99087.63
2022-12-23T10:01:17.570Z,99083.11
2022-12-23T10:04:10.891Z,99083.48
2022-12-23T10:06:49.178Z,99083.27
2022-12-23T10:09:23.042Z,99082.30
2022-12-23T10:11:54.994Z,99075.31
2022-12-23T10:14:33.873Z,99064.81
2022-12-23T10:17:12.850Z,99064.27
2022-12-23T10:19:48.427Z,99066.45
2022-12-23T10:22:24.852Z,99065.42
2022-12-23T10:25:00.306Z,99062.56
2022-12-23T10:27:36.011Z,99060.05
2022-12-23T10:30:49.472Z,99053.05
2022-12-23T10:33:14.375Z,99046.46
2022-12-23T10:35:59.278Z,99047.79
2022-12-23T10:38:53.448Z,99047.16
2022-12-23T10:41:39.568Z,99039.60
2022-12-23T10:44:28.727Z,99038.60
2022-12-23T10:47:12.261Z,99031.38
2022-12-23T10:49:54.625Z,99032.61
2022-12-23T10:52:29.279Z,99023.48
2022-12-23T10:55:00.974Z,99023.30
2022-12-23T10:57:33.530Z,99024.90
2022-12-23T11:00:11.603Z,99018.98
2022-12-23T11:03:00.992Z,99016.55
2022-12-23T11:05:35.220Z,99011.54
2022-12-23T11:08:07.405Z,99008.90
2022-12-23T11:10:41.059Z,99005.69
2022-12-23T11:13:12.593Z,99002.75
2022-12-23T11:15:45.195Z,99000.39
2022-12-23T11:18:23.227Z,99006.44
2022-12-23T11:21:16.274Z,99003.88
2022-12-23T11:23:47.911Z,99001.02
2022-12-23T11:26:22.046Z,98995.56
2022-12-23T11:29:00.670Z,98998.12
2022-12-23T11:31:35.694Z,98995.02
2022-12-23T11:34:18.853Z,98992.21
2022-12-23T11:37:06.974Z,98982.32
2022-12-23T11:39:49.058Z,98985.02
2022-12-23T11:42:27.599Z,98981.35
2022-12-23T11:45:01.801Z,98982.66
2022-12-23T11:47:41.498Z,98982.23
2022-12-23T11:50:30.932Z,98977.48
2022-12-23T11:53:14.960Z,98979.27
2022-12-23T11:55:59.866Z,98974.99
2022-12-23T11:58:37.174Z,98977.90
2022-12-23T12:02:09.444Z,98980.48
2022-12-23T12:05:11.087Z,98973.27
2022-12-23T12:15:14.547Z,98982.84
2022-12-23T12:18:35.925Z,98980.27
2022-12-23T12:21:42.691Z,98983.21
2022-12-23T12:28:10.771Z,98991.15
2022-12-23T12:31:18.716Z,98986.00
2022-12-23T12:34:30.251Z,98984.85
2022-12-23T12:37:40.993Z,98984.30
2022-12-23T12:40:47.369Z,98987.51
2022-12-23T12:43:36.665Z,98983.50
2022-12-23T12:46:35.150Z,98980.26
2022-12-23T12:52:38.098Z,98978.48
2022-12-23T12:55:30.222Z,98980.29
2022-12-23T12:58:28.428Z,98989.20
2022-12-23T13:01:43.653Z,98986.27
2022-12-23T13:05:19.954Z,98987.23
2022-12-23T13:08:08.121Z,98981.25
2022-12-23T13:10:55.456Z,98978.48
2022-12-23T13:13:37.194Z,98980.02
2022-12-23T13:16:18.852Z,98987.06
2022-12-23T13:18:57.540Z,98986.92
2022-12-23T13:21:34.910Z,98987.20
2022-12-23T13:24:19.240Z,98990.08
2022-12-23T13:26:59.331Z,98987.98
2022-12-23T13:29:58.245Z,98984.57
2022-12-23T13:32:51.026Z,98981.91
2022-12-23T13:35:35.738Z,98983.02
2022-12-23T13:38:24.269Z,98977.02
2022-12-23T13:41:06.182Z,98978.77
2022-12-23T13:43:50.200Z,98977.59
2022-12-23T13:46:37.370Z,98979.84
2022-12-23T13:52:50.311Z,98985.38
2022-12-23T13:59:18.587Z,98984.56
2022-12-23T14:02:29.898Z,98982.30
2022-12-23T14:05:14.757Z,98982.64
2022-12-23T14:08:35.005Z,98985.77
2022-12-23T14:12:01.080Z,98985.91
2022-12-23T14:14:38.693Z,98995.87
2022-12-23T14:17:17.900Z,98998.77
2022-12-23T14:20:10.743Z,99000.52
2022-12-23T14:22:57.081Z,98999.69
2022-12-23T14:25:58.482Z,99002.13
2022-12-23T14:28:49.641Z,99002.77
2022-12-23T14:31:41.094Z,99000.54
2022-12-23T14:37:36.372Z,99008.58
2022-12-23T14:40:42.849Z,99012.59
2022-12-23T14:43:37.422Z,99013.29
2022-12-23T14:47:05.450Z,99015.44
2022-12-23T14:49:43.348Z,99020.09
2022-12-23T14:52:54.202Z,99020.77
2022-12-23T14:55:48.797Z,99022.79
2022-12-23T14:59:02.001Z,99022.64
2022-12-23T15:01:41.255Z,99021.89
2022-12-23T15:04:20.502Z,99023.50
2022-12-23T15:06:56.135Z,99023.80
2022-12-23T15:09:31.607Z,99024.98
2022-12-23T15:12:08.164Z,99027.69
2022-12-23T15:14:46.186Z,99027.41
2022-12-23T15:17:46.788Z,99028.06
2022-12-23T15:21:19.587Z,99027.91
2022-12-23T15:24:37.285Z,99030.48
2022-12-23T15:31:33.201Z,99031.86
2022-12-23T15:34:18.813Z,99030.41
2022-12-23T15:37:14.503Z,99030.41
2022-12-23T15:39:47.366Z,99034.79
2022-12-23T15:42:27.393Z,99037.02
2022-12-23T15:44:59.314Z,99031.97
2022-12-23T15:47:38.896Z,99037.52
2022-12-23T15:50:19.451Z,99039.23
2022-12-23T15:52:52.273Z,99036.32
2022-12-23T15:55:45.675Z,99033.80
2022-12-23T15:58:26.127Z,99031.50
2022-12-23T16:00:59.581Z,99026.77
2022-12-23T16:03:46.571Z,99026.86
2022-12-23T16:06:39.329Z,99030.41
2022-12-23T16:09:54.447Z,99027.33
2022-12-23T16:12:28.505Z,99029.85
2022-12-23T16:15:02.226Z,99034.14
2022-12-23T16:17:38.361Z,99033.61
2022-12-23T16:20:24.294Z,99039.75
2022-12-23T16:22:58.824Z,99038.44
2022-12-23T16:25:33.798Z,99035.63
2022-12-23T16:28:09.167Z,99033.67
2022-12-23T16:30:43.188Z,99030.93
2022-12-23T16:33:33.519Z,99033.77
2022-12-23T16:36:20.242Z,99035.96
2022-12-23T16:38:53.509Z,99035.83
2022-12-23T16:41:25.109Z,99040.02
2022-12-23T16:43:56.551Z,99041.87
2022-12-23T16:46:29.382Z,99040.23
2022-12-23T16:49:04.917Z,99041.70
2022-12-23T16:51:37.610Z,99041.16
2022-12-23T16:54:49.758Z,99037.50
2022-12-23T16:57:33.265Z,99040.50
2022-12-23T17:00:26.666Z,99043.98
2022-12-23T17:13:46.175Z,99047.91
2022-12-23T17:16:24.712Z,99043.67
2022-12-23T17:18:56.377Z,99047.02
2022-12-23T17:21:37.651Z,99052.58
2022-12-23T17:24:21.430Z,99048.94
2022-12-23T17:26:53.796Z,99048.14
2022-12-23T17:29:25.987Z,99039.13
2022-12-23T17:32:12.122Z,99046.69
2022-12-23T17:35:33.580Z,99045.24
2022-12-23T17:41:33.582Z,99066.48
2022-12-23T17:47:43.871Z,99074.40
2022-12-23T17:50:28.359Z,99066.94
2022-12-23T17:53:17.705Z,99064.56
2022-12-23T17:55:49.344Z,99069.69
2022-12-23T17:58:20.941Z,99073.16
2022-12-23T18:00:52.803Z,99072.61
2022-12-23T18:03:26.541Z,99075.63
2022-12-23T18:06:01.974Z,99077.52
2022-12-23T18:08:34.241Z,99085.80
2022-12-23T18:11:06.527Z,99086.39
2022-12-23T18:13:38.396Z,99087.98
2022-12-23T18:16:12.499Z,99086.27
2022-12-23T18:18:46.831Z,99090.32
2022-12-23T18:21:25.357Z,99091.23
2022-12-23T18:24:00.245Z,99094.00
2022-12-23T18:26:34.584Z,99098.58
2022-12-23T18:29:06.205Z,99106.69
2022-12-23T18:31:50.007Z,99107.80
2022-12-23T18:34:25.330Z,99108.70
2022-12-23T18:37:43.577Z,99111.26
2022-12-23T18:40:32.710Z,99112.63
2022-12-23T18:50:44.826Z,99120.55
2022-12-23T19:00:13.995Z,99138.56
2022-12-23T19:03:05.678Z,99138.81
2022-12-23T19:05:48.629Z,99142.52
2022-12-23T19:08:26.296Z,99141.69
2022-12-23T19:11:26.676Z,99135.52
2022-12-23T19:14:16.837Z,99144.89
2022-12-23T19:16:51.879Z,99150.02
2022-12-23T19:19:26.361Z,99146.84
2022-12-23T19:29:24.146Z,99158.04
2022-12-23T19:38:27.462Z,99160.91
2022-12-23T19:41:01.834Z,99162.48
2022-12-23T19:43:33.964Z,99162.05
2022-12-23T19:46:07.823Z,99166.45
2022-12-23T19:48:44.351Z,99165.38
2022-12-23T19:51:17.543Z,99163.27
2022-12-23T19:53:53.857Z,99162.55
2022-12-23T19:56:26.346Z,99160.94
2022-12-23T19:58:59.599Z,99155.81
2022-12-23T20:01:32.747Z,99163.65
2022-12-23T20:04:04.641Z,99163.84
2022-12-23T20:06:38.642Z,99168.81
2022-12-23T20:09:11.775Z,99178.59
2022-12-23T20:11:45.627Z,99179.34
2022-12-23T20:14:18.985Z,99185.89
2022-12-23T20:16:51.623Z,99179.32
2022-12-23T20:19:24.389Z,99179.25
2022-12-23T20:21:56.721Z,99175.72
2022-12-23T20:24:28.795Z,99179.11
2022-12-23T20:27:00.459Z,99184.11
2022-12-23T20:29:32.935Z,99183.91
2022-12-23T20:32:04.888Z,99174.36
2022-12-23T20:34:46.512Z,99175.77
2022-12-23T20:37:19.069Z,99174.73
2022-12-23T20:39:51.202Z,99172.63
2022-12-23T20:42:24.184Z,99172.05
2022-12-23T20:44:56.085Z,99173.40
2022-12-23T20:47:28.000Z,99170.46
2022-12-23T20:49:59.582Z,99168.38
2022-12-23T20:52:31.191Z,99168.86
2022-12-23T20:55:03.042Z,99162.56
2022-12-23T20:57:36.125Z,99155.41
2022-12-23T21:00:08.927Z,99149.58
2022-12-23T21:02:41.135Z,99145.05
2022-12-23T21:05:13.233Z,99148.09
2022-12-23T21:07:44.804Z,99145.01
2022-12-23T21:10:16.684Z,99141.40
2022-12-23T21:12:48.646Z,99147.23
2022-12-23T21:15:21.379Z,99156.79
2022-12-23T21:17:53.067Z,99158.59
2022-12-23T21:20:25.089Z,99158.05
2022-12-23T21:22:56.759Z,99162.59
2022-12-23T21:25:28.707Z,99170.02
2022-12-23T21:28:00.422Z,99172.88
2022-12-23T21:30:32.127Z,99173.71
2022-12-23T21:33:03.882Z,99172.88
2022-12-23T21:35:36.558Z,99164.41
2022-12-23T21:38:08.251Z,99163.20
2022-12-23T21:40:39.952Z,99164.91
2022-12-23T21:43:11.786Z,99166.08
2022-12-23T21:45:44.110Z,99166.95
2022-12-23T21:48:15.808Z,99172.27
2022-12-23T21:50:47.542Z,99174.12
2022-12-23T21:53:19.210Z,99181.89
2022-12-23T21:55:50.976Z,99188.50
2022-12-23T21:58:22.555Z,99188.55
2022-12-23T22:00:54.427Z,99200.52
2022-12-23T22:03:26.379Z,99197.70
2022-12-23T22:06:10.248Z,99191.66
2022-12-23T22:08:43.890Z,99198.02
2022-12-23T22:11:18.364Z,99191.95
2022-12-23T22:13:50.065Z,99193.38
2022-12-23T22:16:25.317Z,99188.58
2022-12-23T22:18:58.197Z,99186.92
2022-12-23T22:21:31.447Z,99182.56
2022-12-23T22:24:04.717Z,99181.52
2022-12-23T22:26:37.474Z,99176.00
2022-12-23T22:29:09.480Z,99172.33
2022-12-23T22:31:45.676Z,99172.69
2022-12-23T22:34:19.256Z,99178.28
2022-12-23T22:36:51.435Z,99183.16
2022-12-23T22:39:24.235Z,99191.31
2022-12-23T22:41:55.909Z,99194.79
2022-12-23T22:44:27.515Z,99194.49
2022-12-23T22:46:59.306Z,99196.60
2022-12-23T22:49:31.126Z,99187.89
2022-12-23T22:52:02.642Z,99193.23
2022-12-23T22:54:34.405Z,99198.88
2022-12-23T22:57:06.563Z,99189.56
2022-12-23T22:59:38.619Z,99190.58
2022-12-23T23:02:10.421Z,99186.35
2022-12-23T23:04:43.010Z,99174.51
2022-12-23T23:07:15.530Z,99165.52
2022-12-23T23:09:51.099Z,99157.52
2022-12-23T23:12:23.157Z,99150.38
2022-12-23T23:14:55.148Z,99149.89
2022-12-23T23:17:29.181Z,99152.35
2022-12-23T23:20:01.199Z,99152.97
2022-12-23T23:22:42.420Z,99164.08
2022-12-23T23:25:17.060Z,99156.09
2022-12-23T23:27:49.758Z,99147.29
2022-12-23T23:30:21.664Z,99146.41
2022-12-23T23:32:53.400Z,99155.68
2022-12-23T23:35:25.051Z,99153.23
2022-12-23T23:37:56.578Z,99146.60
2022-12-23T23:40:28.809Z,99154.79
2022-12-23T23:43:00.820Z,99154.93
2022-12-23T23:45:32.399Z,99152.94
2022-12-23T23:48:03.959Z,99154.84
2022-12-23T23:50:35.388Z,99156.18
2022-12-23T23:53:06.935Z,99149.38
2022-12-23T23:55:38.514Z,99143.42
2022-12-23T23:58:10.698Z,99139.60
